Luke Burton — WDF4886 — position and weather

sailwx.info

Track history (hours):
 
Tides and Currents Weather Stations Pressure Air Temp Water Temp Dewpoint Dewpoint Depression Visibility Wind Speed Wind Dir Waves Ship Positions

Luke Burton

Owner: Canal Barge Company, Inc., Belle Chasse, LA. More information available from US FCC via Universal Licensing System and Coast Guard Vessel Documentation Center.

Last reported at 2017-Nov-26 07:12 UTC. Time now 2017-Dec-18 20:41 UTC.
Position N 32°47' W 091°10'.
Warning: this ship's position is 22 days out of date.

Length 44 m; draft 3 m.

Type: Towing. MMSI: 367456880.

Date/timePositionNaut miles runAvg speedWind from/ knotsBaromVisibWave heightAir tempDewpointWater temp
2017-Nov-26 07:12N 32°47' W 091°10'1 5.0
2017-Nov-26 06:57N 32°46' W 091°09'4 3.4
2017-Nov-26 05:45N 32°44' W 091°05'1 5.0
2017-Nov-26 05:30N 32°44' W 091°03'5 3.8
2017-Nov-26 04:08N 32°40' W 091°08'1 4.4
2017-Nov-26 04:00N 32°40' W 091°08'2 4.0
2017-Nov-26 03:30N 32°38' W 091°09'1 2.4
2017-Nov-26 03:00N 32°37' W 091°09'0 0.0
2017-Nov-26 02:30N 32°37' W 091°09'1 2.9
2017-Nov-26 02:00N 32°35' W 091°08'2 4.9
2017-Nov-26 01:30N 32°34' W 091°06'3 4.3
2017-Nov-26 00:45N 32°30' W 091°07'1 2.3
2017-Nov-26 00:30N 32°30' W 091°07'2 4.6
2017-Nov-26 00:00N 32°28' W 091°06'3 5.3
2017-Nov-25 23:30N 32°26' W 091°03'3 5.1
2017-Nov-25 23:00N 32°26' W 091°01'2 4.0
2017-Nov-25 22:30N 32°24' W 090°59'1 2.6
2017-Nov-25 22:00N 32°23' W 091°00'0 0.7
2017-Nov-25 21:30N 32°22' W 091°00'2 4.3
2017-Nov-25 21:00N 32°21' W 090°58'3 5.2
2017-Nov-25 20:30N 32°21' W 090°55'2 4.0
2017-Nov-25 20:00N 32°19' W 090°54'1 1.7
2017-Nov-25 19:30N 32°18' W 090°55'0 0.0
2017-Nov-25 19:00N 32°18' W 090°55'0 0.0
2017-Nov-25 18:30N 32°18' W 090°55'0 0.0
2017-Nov-25 18:00N 32°18' W 090°55'0 0.0
2017-Nov-25 17:30N 32°18' W 090°55'0 0.0
2017-Nov-25 17:00N 32°18' W 090°55'0 0.0
2017-Nov-25 16:30N 32°18' W 090°55'0 0.1
2017-Nov-25 16:00N 32°18' W 090°55'2 3.8
2017-Nov-25 15:30N 32°17' W 090°57'3 5.0
2017-Nov-25 15:00N 32°15' W 090°59'3 5.2
2017-Nov-25 14:30N 32°12' W 090°59'3 5.3
2017-Nov-25 14:00N 32°10' W 091°00'3 5.1
2017-Nov-25 13:30N 32°08' W 091°01'2 4.9
2017-Nov-25 13:00N 32°08' W 091°04'1 2.8
2017-Nov-25 12:30N 32°08' W 091°05'2 3.7
2017-Nov-25 12:00N 32°06' W 091°06'3 5.7
2017-Nov-25 11:30N 32°04' W 091°04'3 5.1
2017-Nov-25 10:58N 32°02' W 091°04'1 1.1
2017-Nov-25 10:30N 32°01' W 091°05'2 3.8
2017-Nov-25 10:00N 31°60' W 091°06'4 4.4
2017-Nov-25 09:07N 31°59' W 091°10'1 4.7
2017-Nov-25 09:00N 31°58' W 091°11'3 1.8
2017-Nov-25 07:09N 31°55' W 091°11'  
2017-Nov-22 23:21N 31°57' W 091°11'5 7.7
2017-Nov-22 22:42N 31°59' W 091°06'2 8.2
2017-Nov-22 22:30N 32°01' W 091°05'6 7.4
2017-Nov-22 21:46N 32°06' W 091°06'1 5.0
2017-Nov-22 21:30N 32°07' W 091°07'1 1.1
2017-Nov-22 21:00N 32°08' W 091°06'2 4.6
2017-Nov-22 20:30N 32°08' W 091°04'3 6.9
2017-Nov-22 20:00N 32°09' W 091°00'4 8.7
2017-Nov-22 19:30N 32°14' W 090°59'  
Track history (hours):
 
Tides and Currents Weather Stations Pressure Air Temp Water Temp Dewpoint Dewpoint Depression Visibility Wind Speed Wind Dir Waves Ship Positions

Luke Burton

Owner: Canal Barge Company, Inc., Belle Chasse, LA. More information available from US FCC via Universal Licensing System and Coast Guard Vessel Documentation Center.

Last reported at 2017-Nov-26 07:12 UTC. Time now 2017-Dec-18 20:41 UTC.
Position N 32°47' W 091°10'.
Warning: this ship's position is 22 days out of date.

Length 44 m; draft 3 m.

Type: Towing. MMSI: 367456880.

Date/timePositionNaut miles runAvg speedWind from/ knotsBaromVisibWave heightAir tempDewpointWater temp
2017-Nov-26 07:12N 32°47' W 091°10'1 5.0
2017-Nov-26 06:57N 32°46' W 091°09'4 3.4
2017-Nov-26 05:45N 32°44' W 091°05'1 5.0
2017-Nov-26 05:30N 32°44' W 091°03'5 3.8
2017-Nov-26 04:08N 32°40' W 091°08'1 4.4
2017-Nov-26 04:00N 32°40' W 091°08'2 4.0
2017-Nov-26 03:30N 32°38' W 091°09'1 2.4
2017-Nov-26 03:00N 32°37' W 091°09'0 0.0
2017-Nov-26 02:30N 32°37' W 091°09'1 2.9
2017-Nov-26 02:00N 32°35' W 091°08'2 4.9
2017-Nov-26 01:30N 32°34' W 091°06'3 4.3
2017-Nov-26 00:45N 32°30' W 091°07'1 2.3
2017-Nov-26 00:30N 32°30' W 091°07'2 4.6
2017-Nov-26 00:00N 32°28' W 091°06'3 5.3
2017-Nov-25 23:30N 32°26' W 091°03'3 5.1
2017-Nov-25 23:00N 32°26' W 091°01'2 4.0
2017-Nov-25 22:30N 32°24' W 090°59'1 2.6
2017-Nov-25 22:00N 32°23' W 091°00'0 0.7
2017-Nov-25 21:30N 32°22' W 091°00'2 4.3
2017-Nov-25 21:00N 32°21' W 090°58'3 5.2
2017-Nov-25 20:30N 32°21' W 090°55'2 4.0
2017-Nov-25 20:00N 32°19' W 090°54'1 1.7
2017-Nov-25 19:30N 32°18' W 090°55'0 0.0
2017-Nov-25 19:00N 32°18' W 090°55'0 0.0
2017-Nov-25 18:30N 32°18' W 090°55'0 0.0
2017-Nov-25 18:00N 32°18' W 090°55'0 0.0
2017-Nov-25 17:30N 32°18' W 090°55'0 0.0
2017-Nov-25 17:00N 32°18' W 090°55'0 0.0
2017-Nov-25 16:30N 32°18' W 090°55'0 0.1
2017-Nov-25 16:00N 32°18' W 090°55'2 3.8
2017-Nov-25 15:30N 32°17' W 090°57'3 5.0
2017-Nov-25 15:00N 32°15' W 090°59'3 5.2
2017-Nov-25 14:30N 32°12' W 090°59'3 5.3
2017-Nov-25 14:00N 32°10' W 091°00'3 5.1
2017-Nov-25 13:30N 32°08' W 091°01'2 4.9
2017-Nov-25 13:00N 32°08' W 091°04'1 2.8
2017-Nov-25 12:30N 32°08' W 091°05'2 3.7
2017-Nov-25 12:00N 32°06' W 091°06'3 5.7
2017-Nov-25 11:30N 32°04' W 091°04'3 5.1
2017-Nov-25 10:58N 32°02' W 091°04'1 1.1
2017-Nov-25 10:30N 32°01' W 091°05'2 3.8
2017-Nov-25 10:00N 31°60' W 091°06'4 4.4
2017-Nov-25 09:07N 31°59' W 091°10'1 4.7
2017-Nov-25 09:00N 31°58' W 091°11'3 1.8
2017-Nov-25 07:09N 31°55' W 091°11'  
2017-Nov-22 23:21N 31°57' W 091°11'5 7.7
2017-Nov-22 22:42N 31°59' W 091°06'2 8.2
2017-Nov-22 22:30N 32°01' W 091°05'6 7.4
2017-Nov-22 21:46N 32°06' W 091°06'1 5.0
2017-Nov-22 21:30N 32°07' W 091°07'1 1.1
2017-Nov-22 21:00N 32°08' W 091°06'2 4.6
2017-Nov-22 20:30N 32°08' W 091°04'3 6.9
2017-Nov-22 20:00N 32°09' W 091°00'4 8.7
2017-Nov-22 19:30N 32°14' W 090°59'  

Dump ship's entire track history